createdAt,value
2022-08-11T00:02:04.722Z,1.58
2022-08-11T00:07:07.822Z,1.60
2022-08-11T00:12:34.064Z,2.17
2022-08-11T00:17:36.972Z,1.70
2022-08-11T00:22:41.962Z,2.00
2022-08-11T00:27:44.958Z,2.10
2022-08-11T00:32:56.237Z,2.33
2022-08-11T00:38:00.237Z,2.10
2022-08-11T00:43:20.727Z,1.92
2022-08-11T00:53:50.264Z,1.83
2022-08-11T00:59:35.238Z,2.22
2022-08-11T01:05:23.224Z,1.90
2022-08-11T01:10:54.851Z,1.92
2022-08-11T01:16:58.134Z,2.22
2022-08-11T01:22:24.166Z,2.30
2022-08-11T01:28:10.793Z,2.42
2022-08-11T01:33:37.786Z,1.70
2022-08-11T01:39:01.407Z,2.30
2022-08-11T01:44:38.426Z,2.35
2022-08-11T01:50:08.001Z,1.88
2022-08-11T01:55:26.898Z,2.13
2022-08-11T02:00:33.276Z,2.22
2022-08-11T02:06:01.406Z,2.22
2022-08-11T02:11:25.042Z,2.38
2022-08-11T02:16:58.037Z,2.58
2022-08-11T02:22:33.714Z,2.28
2022-08-11T02:27:53.018Z,1.90
2022-08-11T02:33:23.583Z,2.70
2022-08-11T02:38:34.075Z,2.20
2022-08-11T02:43:50.996Z,2.25
2022-08-11T02:49:30.956Z,2.30
2022-08-11T02:54:44.840Z,2.10
2022-08-11T02:59:59.834Z,2.28
2022-08-11T03:05:21.107Z,2.13
2022-08-11T03:10:28.904Z,2.60
2022-08-11T03:16:27.895Z,2.30
2022-08-11T03:22:01.124Z,2.20
2022-08-11T03:27:31.377Z,2.10
2022-08-11T03:32:42.770Z,2.40
2022-08-11T03:37:54.263Z,2.45
2022-08-11T03:43:08.008Z,2.60
2022-08-11T03:48:14.297Z,2.08
2022-08-11T03:53:53.661Z,2.67
2022-08-11T03:59:30.736Z,2.40
2022-08-11T04:05:09.946Z,2.25
2022-08-11T04:10:42.413Z,2.40
2022-08-11T04:16:16.604Z,2.22
2022-08-11T04:21:43.206Z,2.38
2022-08-11T04:27:37.275Z,2.83
2022-08-11T04:32:56.585Z,2.38
2022-08-11T04:38:40.424Z,1.83
2022-08-11T04:44:02.728Z,2.20
2022-08-11T04:49:54.270Z,2.10
2022-08-11T04:55:52.031Z,2.55
2022-08-11T05:01:43.852Z,2.40
2022-08-11T05:07:15.045Z,2.40
2022-08-11T05:12:36.020Z,2.20
2022-08-11T05:18:34.185Z,2.30
2022-08-11T05:23:59.503Z,2.22
2022-08-11T05:29:24.147Z,2.53
2022-08-11T05:34:49.861Z,2.22
2022-08-11T05:40:14.660Z,2.20
2022-08-11T05:45:57.258Z,2.00
2022-08-11T05:51:25.554Z,2.22
2022-08-11T05:56:34.916Z,2.10
2022-08-11T06:01:36.950Z,2.33
2022-08-11T06:06:47.131Z,2.05
2022-08-11T06:11:50.323Z,1.98
2022-08-11T06:16:57.070Z,2.25
2022-08-11T06:22:01.186Z,2.17
2022-08-11T06:27:12.739Z,2.47
2022-08-11T06:32:16.563Z,2.28
2022-08-11T06:37:36.468Z,1.92
2022-08-11T06:42:47.782Z,2.20
2022-08-11T06:47:50.125Z,1.92
2022-08-11T06:52:53.957Z,2.20
2022-08-11T06:58:14.857Z,1.67
2022-08-11T07:03:19.691Z,1.95
2022-08-11T07:09:17.827Z,1.90
2022-08-11T07:14:45.580Z,2.08
2022-08-11T07:20:20.925Z,1.98
2022-08-11T07:25:43.484Z,1.80
2022-08-11T07:30:47.606Z,1.83
2022-08-11T07:35:57.727Z,1.88
2022-08-11T07:41:00.018Z,1.85
2022-08-11T07:46:23.117Z,2.20
2022-08-11T07:51:43.852Z,1.73
2022-08-11T08:02:29.467Z,1.67
2022-08-11T08:07:51.694Z,1.40
2022-08-11T08:13:16.557Z,1.30
2022-08-11T08:18:26.077Z,1.60
2022-08-11T08:23:35.623Z,1.50
2022-08-11T08:28:37.740Z,1.10
2022-08-11T08:33:42.354Z,1.67
2022-08-11T08:38:54.325Z,1.60
2022-08-11T08:44:27.750Z,1.92
2022-08-11T08:49:40.511Z,1.98
2022-08-11T08:55:04.331Z,1.80
2022-08-11T09:00:07.646Z,2.05
2022-08-11T09:05:12.293Z,1.63
2022-08-11T09:10:17.466Z,2.08
2022-08-11T09:15:20.155Z,1.88
2022-08-11T09:20:25.898Z,2.30
2022-08-11T09:25:50.056Z,1.50
2022-08-11T09:30:56.343Z,1.50
2022-08-11T09:36:20.331Z,1.80
2022-08-11T09:41:25.563Z,2.90
2022-08-11T09:46:30.482Z,1.65
2022-08-11T09:51:34.331Z,1.48
2022-08-11T09:56:55.253Z,1.85
2022-08-11T10:02:00.290Z,1.25
2022-08-11T10:07:06.958Z,1.63
2022-08-11T10:12:12.181Z,1.95
2022-08-11T10:17:16.165Z,1.45
2022-08-11T10:22:37.769Z,1.65
2022-08-11T10:28:28.712Z,1.55
2022-08-11T10:33:36.581Z,1.50
2022-08-11T10:38:40.658Z,1.48
2022-08-11T10:44:03.126Z,1.33
2022-08-11T10:49:08.318Z,1.50
2022-08-11T10:54:29.661Z,1.40
2022-08-11T10:59:34.652Z,1.20
2022-08-11T11:04:51.872Z,1.20
2022-08-11T11:10:04.039Z,1.60
2022-08-11T11:15:25.576Z,1.38
2022-08-11T11:20:36.938Z,1.38
2022-08-11T11:26:06.759Z,1.17
2022-08-11T11:31:26.751Z,1.35
2022-08-11T11:36:46.703Z,2.00
2022-08-11T11:41:52.071Z,1.05
2022-08-11T11:46:54.269Z,1.00
2022-08-11T11:51:58.309Z,1.00
2022-08-11T11:57:22.362Z,0.82
2022-08-11T12:02:24.519Z,0.80
2022-08-11T12:07:45.183Z,0.70
2022-08-11T12:13:24.497Z,0.70
2022-08-11T12:18:26.496Z,1.00
2022-08-11T12:23:47.704Z,0.80
2022-08-11T12:28:50.662Z,0.75
2022-08-11T12:33:53.977Z,0.90
2022-08-11T12:38:56.463Z,0.98
2022-08-11T12:44:23.428Z,0.80
2022-08-11T12:49:49.564Z,0.77
2022-08-11T12:54:57.971Z,0.98
2022-08-11T13:00:27.013Z,0.70
2022-08-11T13:05:33.202Z,0.82
2022-08-11T13:11:03.757Z,0.75
2022-08-11T13:16:07.096Z,1.13
2022-08-11T13:21:20.388Z,1.05
2022-08-11T13:26:36.948Z,0.88
2022-08-11T13:31:47.222Z,1.13
2022-08-11T13:36:52.728Z,1.00
2022-08-11T13:41:57.281Z,1.10
2022-08-11T13:47:04.348Z,1.70
2022-08-11T13:52:10.129Z,1.20
2022-08-11T13:58:07.134Z,0.90
2022-08-11T14:02:42.719Z,1.10
2022-08-11T14:08:02.382Z,1.27
2022-08-11T14:13:41.235Z,2.00
2022-08-11T14:18:51.593Z,1.33
2022-08-11T14:24:01.423Z,2.00
2022-08-11T14:29:08.685Z,1.27
2022-08-11T14:34:13.248Z,1.40
2022-08-11T14:39:18.540Z,1.25
2022-08-11T14:44:39.785Z,1.27
2022-08-11T14:49:56.166Z,1.48
2022-08-11T14:55:19.908Z,1.15
2022-08-11T15:00:22.381Z,1.48
2022-08-11T15:05:25.958Z,1.17
2022-08-11T15:10:28.634Z,1.60
2022-08-11T15:15:50.383Z,1.05
2022-08-11T15:21:12.049Z,2.00
2022-08-11T15:26:48.350Z,1.25
2022-08-11T15:32:08.672Z,1.48
2022-08-11T15:37:27.361Z,1.10
2022-08-11T15:42:50.026Z,1.50
2022-08-11T15:48:05.520Z,1.15
2022-08-11T15:53:30.357Z,1.40
2022-08-11T15:59:10.642Z,1.15
2022-08-11T16:04:24.471Z,1.30
2022-08-11T16:09:51.907Z,1.05
2022-08-11T16:15:19.953Z,1.58
2022-08-11T16:20:26.213Z,1.33
2022-08-11T16:27:04.999Z,1.10
2022-08-11T16:30:52.380Z,1.45
2022-08-11T16:36:13.827Z,1.00
2022-08-11T16:41:38.649Z,1.35
2022-08-11T16:46:58.903Z,1.17
2022-08-11T16:52:04.130Z,1.75
2022-08-11T16:57:27.610Z,1.60
2022-08-11T17:02:52.782Z,1.40
2022-08-11T17:08:14.984Z,0.90
2022-08-11T17:13:20.776Z,1.08
2022-08-11T17:18:43.414Z,0.90
2022-08-11T17:23:52.044Z,1.00
2022-08-11T17:28:59.459Z,1.17
2022-08-11T17:34:23.076Z,1.10
2022-08-11T17:39:29.458Z,0.77
2022-08-11T17:44:52.320Z,0.98
2022-08-11T17:49:55.342Z,1.15
2022-08-11T17:55:51.917Z,0.98
2022-08-11T18:00:55.178Z,0.98
2022-08-11T18:05:59.654Z,1.02
2022-08-11T18:12:10.409Z,1.08
2022-08-11T18:17:06.237Z,1.23
2022-08-11T18:22:32.115Z,1.00
2022-08-11T18:27:55.265Z,0.80
2022-08-11T18:39:04.948Z,1.00
2022-08-11T18:44:29.259Z,1.08
2022-08-11T18:50:03.505Z,1.25
2022-08-11T18:55:35.448Z,1.00
2022-08-11T19:00:58.579Z,1.20
2022-08-11T19:06:38.478Z,1.05
2022-08-11T19:12:03.859Z,1.15
2022-08-11T19:17:43.586Z,1.00
2022-08-11T19:23:07.918Z,1.05
2022-08-11T19:28:28.681Z,1.02
2022-08-11T19:39:32.095Z,1.13
2022-08-11T19:44:53.651Z,1.13
2022-08-11T19:50:21.509Z,1.33
2022-08-11T19:55:48.597Z,1.08
2022-08-11T20:01:09.264Z,1.02
2022-08-11T20:11:54.686Z,1.10
2022-08-11T20:17:16.608Z,0.90
2022-08-11T20:22:38.074Z,1.10
2022-08-11T20:28:02.337Z,1.10
2022-08-11T20:33:23.727Z,1.20
2022-08-11T20:38:48.568Z,1.40
2022-08-11T20:44:10.103Z,1.05
2022-08-11T20:49:40.892Z,1.48
2022-08-11T20:55:18.985Z,1.00
2022-08-11T21:00:47.507Z,1.27
2022-08-11T21:06:11.144Z,1.25
2022-08-11T21:11:33.581Z,1.40
2022-08-11T21:16:55.812Z,1.25
2022-08-11T21:22:19.712Z,1.08
2022-08-11T21:27:43.244Z,1.00
2022-08-11T21:33:04.218Z,1.10
2022-08-11T21:38:25.104Z,1.42
2022-08-11T21:43:49.950Z,1.48
2022-08-11T21:49:10.804Z,2.45
2022-08-11T21:54:37.337Z,1.30
2022-08-11T22:00:11.748Z,1.73
2022-08-11T22:05:35.386Z,1.30
2022-08-11T22:10:56.689Z,1.23
2022-08-11T22:16:18.045Z,1.25
2022-08-11T22:22:03.625Z,1.30
2022-08-11T22:27:20.008Z,1.20
2022-08-11T22:32:41.701Z,1.15
2022-08-11T22:38:05.167Z,1.30
2022-08-11T22:43:26.068Z,1.20
2022-08-11T22:54:13.236Z,1.38
2022-08-11T22:59:35.265Z,1.40
2022-08-11T23:04:57.599Z,1.40
2022-08-11T23:10:18.411Z,1.02
2022-08-11T23:21:02.495Z,1.40
2022-08-11T23:26:24.004Z,1.40
2022-08-11T23:31:51.257Z,1.65
2022-08-11T23:37:13.860Z,1.42
2022-08-11T23:42:36.038Z,1.05
2022-08-11T23:47:57.971Z,1.40
2022-08-11T23:53:18.926Z,2.70
2022-08-11T23:58:39.213Z,1.30
